Time;durP1;ratioP1;P1;durP2;ratioP2;P2;SDS_P1;SDS_P2;PMS_P1;PMS_P2;Temp;Humidity;BMP_temperature;BMP_pressure;BME280_temperature;BME280_humidity;BME280_pressure;Samples;Min_cycle;Max_cycle;Signal;HPM_P1;HPM_P2
2021/06/14 00:00:09;;;;;;;5.45;2.75;;;;;;;14.42;96.09;96787.03;4964352;28;20066;-62
2021/06/14 00:02:35;;;;;;;2.50;2.30;;;;;;;14.40;95.44;96789.47;4964773;28;20042;-63
2021/06/14 00:05:00;;;;;;;2.75;2.10;;;;;;;13.91;94.05;96717.09;4963288;28;20210;-64
2021/06/14 00:07:26;;;;;;;4.28;2.10;;;;;;;14.17;95.18;96741.69;4964481;28;20541;-62
2021/06/14 00:09:51;;;;;;;5.55;1.75;;;;;;;14.40;92.19;96798.59;4964598;28;20031;-61
2021/06/14 00:12:21;;;;;;;3.72;2.20;;;;;;;14.01;93.75;96769.16;4963664;28;20077;-61
2021/06/14 00:14:50;;;;;;;4.38;2.03;;;;;;;13.85;92.86;96747.31;4964323;28;20037;-60
2021/06/14 00:17:17;;;;;;;3.22;2.10;;;;;;;12.97;92.94;96610.97;4964168;28;20608;-62
2021/06/14 00:19:48;;;;;;;3.50;2.10;;;;;;;14.08;93.58;96802.59;4965234;28;20093;-62
2021/06/14 00:22:14;;;;;;;4.25;2.45;;;;;;;13.62;93.45;96731.00;4967161;28;20046;-62
2021/06/14 00:24:40;;;;;;;2.20;2.00;;;;;;;13.55;93.21;96741.34;4966040;28;20061;-60
2021/06/14 00:27:06;;;;;;;2.42;2.13;;;;;;;14.01;93.05;96819.28;4966267;28;20046;-62
2021/06/14 00:29:31;;;;;;;3.47;1.98;;;;;;;13.54;93.96;96773.97;4967526;28;20414;-61
2021/06/14 00:31:57;;;;;;;2.40;1.88;;;;;;;13.90;93.37;96824.06;4965501;28;20039;-60
2021/06/14 00:34:22;;;;;;;4.32;1.83;;;;;;;13.85;92.67;96810.56;4966096;28;20034;-62
2021/06/14 00:36:47;;;;;;;3.30;1.48;;;;;;;13.48;91.72;96758.03;4965554;28;20039;-61
2021/06/14 00:39:13;;;;;;;3.15;2.20;;;;;;;13.47;96.75;96812.88;4967377;28;20035;-61
2021/06/14 00:41:38;;;;;;;24.80;8.85;;;;;;;12.99;98.08;96752.34;4965146;28;20522;-64
2021/06/14 00:44:04;;;;;;;3.70;2.22;;;;;;;13.58;96.21;96819.28;4955059;28;20255;-62
2021/06/14 00:46:30;;;;;;;4.72;2.15;;;;;;;13.57;96.62;96817.69;4986612;28;20576;-62
2021/06/14 00:48:55;;;;;;;14.93;6.32;;;;;;;12.74;99.62;96785.59;4967423;28;20109;-61
2021/06/14 00:51:20;;;;;;;27.10;8.20;;;;;;;13.20;100.00;96814.41;4966756;28;20407;-62
2021/06/14 00:53:55;;;;;;;7.13;3.55;;;;;;;12.73;100.00;96727.63;4965131;28;20039;-61
2021/06/14 00:56:22;;;;;;;2.85;2.05;;;;;;;13.30;100.00;96807.28;4967033;28;20519;-62
2021/06/14 00:58:48;;;;;;;3.85;2.58;;;;;;;13.29;100.00;96806.47;4967024;28;20042;-62
2021/06/14 01:01:13;;;;;;;6.07;2.33;;;;;;;13.00;98.21;96762.28;4967013;28;20035;-61
2021/06/14 01:03:39;;;;;;;8.52;3.30;;;;;;;11.42;100.00;96631.75;4967021;28;20039;-62
2021/06/14 01:06:07;;;;;;;7.80;4.30;;;;;;;12.25;100.00;96824.22;4966575;28;20421;-62
2021/06/14 01:08:34;;;;;;;8.93;4.63;;;;;;;12.42;100.00;96815.22;4966792;28;20102;-62
2021/06/14 01:11:12;;;;;;;7.45;3.90;;;;;;;12.63;100.00;96814.56;4966758;28;20050;-61
2021/06/14 01:13:45;;;;;;;7.78;4.13;;;;;;;11.96;100.00;96686.41;4965320;28;20125;-61
2021/06/14 01:16:20;;;;;;;17.02;4.40;;;;;;;12.88;100.00;96818.25;4966433;28;20241;-61
2021/06/14 01:19:04;;;;;;;7.60;3.63;;;;;;;12.95;100.00;96810.72;4966998;28;20049;-63
2021/06/14 01:21:35;;;;;;;5.03;3.08;;;;;;;13.08;100.00;96817.56;4966589;28;20121;-62
2021/06/14 01:24:28;;;;;;;7.50;3.25;;;;;;;13.17;100.00;96809.63;4967042;28;20173;-62
2021/06/14 01:27:35;;;;;;;5.85;3.30;;;;;;;13.24;100.00;96801.31;4966092;28;20043;-61
2021/06/14 01:30:01;;;;;;;8.55;3.13;;;;;;;13.31;100.00;96803.31;4964747;28;20152;-61
2021/06/14 01:32:27;;;;;;;5.93;3.30;;;;;;;13.42;100.00;96810.50;4963249;28;20097;-61
2021/06/14 01:34:53;;;;;;;4.15;3.15;;;;;;;13.16;98.91;96734.94;4964630;28;20026;-61
2021/06/14 01:37:19;;;;;;;20.73;9.35;;;;;;;12.82;99.21;96745.53;4964537;28;20420;-61
2021/06/14 01:39:46;;;;;;;19.83;6.80;;;;;;;13.13;100.00;96803.28;4966238;28;20035;-62
2021/06/14 01:42:12;;;;;;;13.82;7.97;;;;;;;13.32;100.00;96805.72;4966524;28;20110;-62
2021/06/14 01:44:39;;;;;;;7.03;3.92;;;;;;;13.39;100.00;96791.81;4981088;28;20054;-64
2021/06/14 01:47:06;;;;;;;4.78;3.97;;;;;;;13.59;100.00;96790.25;4965546;28;20039;-64
2021/06/14 01:49:33;;;;;;;4.22;3.13;;;;;;;13.23;98.32;96726.63;4964753;28;20043;-62
2021/06/14 01:51:59;;;;;;;22.20;6.35;;;;;;;13.45;98.03;96798.56;4964266;28;20045;-62
2021/06/14 01:54:25;;;;;;;30.45;9.60;;;;;;;13.00;100.00;96777.00;4965826;28;20046;-61
2021/06/14 01:56:53;;;;;;;13.90;4.65;;;;;;;12.51;100.00;96660.09;4965731;28;20042;-61
2021/06/14 01:59:23;;;;;;;2.63;2.15;;;;;;;13.40;99.36;96796.16;4966422;28;20109;-62
2021/06/14 02:01:50;;;;;;;5.75;2.45;;;;;;;12.98;96.94;96751.53;4965441;28;20043;-61
2021/06/14 02:04:16;;;;;;;7.78;3.03;;;;;;;13.11;97.62;96766.72;4966177;28;20035;-62
2021/06/14 02:06:44;;;;;;;7.55;2.85;;;;;;;12.99;97.15;96758.69;4965730;28;20549;-62
2021/06/14 02:09:12;;;;;;;5.47;2.80;;;;;;;13.22;97.74;96795.34;4963844;28;20069;-64
2021/06/14 02:12:00;;;;;;;8.60;2.97;;;;;;;12.55;98.66;96726.78;4965523;28;20050;-64
2021/06/14 02:14:29;;;;;;;8.77;4.50;;;;;;;13.18;99.35;96802.88;4965900;28;20038;-62
2021/06/14 02:17:05;;;;;;;8.27;4.30;;;;;;;13.23;100.00;96791.38;4965320;28;20121;-62
2021/06/14 02:19:30;;;;;;;10.15;3.83;;;;;;;13.27;100.00;96789.41;4965924;28;20065;-62
2021/06/14 02:21:56;;;;;;;8.40;3.83;;;;;;;13.43;99.49;96795.41;4979881;28;20137;-63
2021/06/14 02:24:21;;;;;;;8.73;3.90;;;;;;;12.41;100.00;96721.16;4965418;28;20041;-61
2021/06/14 02:26:47;;;;;;;5.60;3.53;;;;;;;12.49;100.00;96762.47;4965277;28;20038;-61
2021/06/14 02:29:14;;;;;;;3.45;2.83;;;;;;;13.06;100.00;96808.81;4963704;28;20031;-61
2021/06/14 02:31:39;;;;;;;5.35;3.55;;;;;;;12.70;100.00;96790.38;4964946;28;20046;-62
2021/06/14 02:34:06;;;;;;;6.50;3.75;;;;;;;12.98;100.00;96807.16;4965541;28;20031;-62
2021/06/14 02:36:34;;;;;;;8.90;3.67;;;;;;;13.15;100.00;96795.31;4979671;28;20142;-63
2021/06/14 02:39:08;;;;;;;6.13;3.75;;;;;;;13.25;100.00;96794.56;4964110;28;20038;-61
2021/06/14 02:41:34;;;;;;;5.00;3.08;;;;;;;13.26;100.00;96787.78;4965049;28;20409;-63
2021/06/14 02:44:05;;;;;;;5.38;2.72;;;;;;;13.34;100.00;96786.63;4965331;28;20109;-62
2021/06/14 02:46:32;;;;;;;3.28;2.95;;;;;;;13.03;100.00;96742.84;4963203;28;20438;-61
2021/06/14 02:48:59;;;;;;;4.32;2.90;;;;;;;12.87;100.00;96716.56;4965022;28;20109;-62
2021/06/14 02:51:24;;;;;;;3.45;2.58;;;;;;;13.36;100.00;96795.38;4963494;28;20047;-62
2021/06/14 02:54:05;;;;;;;4.20;2.75;;;;;;;13.42;100.00;96788.22;4965046;28;20074;-62
2021/06/14 02:56:36;;;;;;;6.53;2.30;;;;;;;13.31;96.70;96776.28;4964614;28;20109;-65
2021/06/14 02:59:04;;;;;;;6.85;2.45;;;;;;;13.38;95.47;96798.56;4965312;28;20027;-63
2021/06/14 03:01:31;;;;;;;6.18;4.75;;;;;;;13.17;98.47;96795.72;4964718;28;20134;-63
2021/06/14 03:03:57;;;;;;;4.95;4.43;;;;;;;13.10;99.96;96798.47;4965073;28;20125;-61
2021/06/14 03:06:23;;;;;;;8.48;4.57;;;;;;;13.09;100.00;96751.59;4963588;28;20051;-63
2021/06/14 03:08:50;;;;;;;12.15;5.22;;;;;;;13.40;98.47;96810.09;4965227;28;20027;-63
2021/06/14 03:11:18;;;;;;;4.88;4.05;;;;;;;13.41;98.35;96814.47;4964867;28;20042;-63
2021/06/14 03:13:45;;;;;;;8.07;5.50;;;;;;;13.00;99.44;96759.50;4965012;28;20037;-62
2021/06/14 03:16:14;;;;;;;6.57;4.85;;;;;;;13.41;99.55;96796.97;4962893;28;20478;-61
2021/06/14 03:18:42;;;;;;;6.65;4.18;;;;;;;12.69;98.78;96685.16;4964904;28;20039;-65
2021/06/14 03:21:08;;;;;;;6.25;2.85;;;;;;;13.48;98.91;96808.13;4964233;28;20073;-64
2021/06/14 03:23:33;;;;;;;3.53;2.60;;;;;;;13.58;96.05;96794.22;4964919;28;20553;-61
2021/06/14 03:26:02;;;;;;;3.88;3.10;;;;;;;13.68;95.36;96807.38;4964766;28;20042;-61
2021/06/14 03:28:28;;;;;;;4.10;2.50;;;;;;;13.73;93.00;96797.03;4965092;28;20041;-62
2021/06/14 03:30:54;;;;;;;3.45;2.55;;;;;;;12.88;92.92;96671.69;4964153;28;20039;-62
2021/06/14 03:33:20;;;;;;;6.88;2.97;;;;;;;13.57;95.58;96761.22;4964307;28;20435;-62
2021/06/14 03:35:47;;;;;;;5.72;3.42;;;;;;;13.82;94.68;96791.84;4964283;28;20043;-61
2021/06/14 03:38:13;;;;;;;3.45;2.70;;;;;;;13.84;93.21;96814.53;4964456;28;20055;-62
2021/06/14 03:40:39;;;;;;;6.40;2.40;;;;;;;13.42;94.68;96804.94;4964061;28;20078;-63
2021/06/14 03:43:05;;;;;;;6.90;3.47;;;;;;;13.26;97.96;96801.72;4964856;28;20418;-61
2021/06/14 03:45:32;;;;;;;6.30;2.60;;;;;;;12.69;97.01;96660.94;4964525;28;20042;-63
2021/06/14 03:47:58;;;;;;;2.90;2.38;;;;;;;13.44;96.80;96760.81;4963211;28;20989;-61
2021/06/14 03:50:24;;;;;;;7.00;2.30;;;;;;;13.81;95.72;96776.34;4978694;28;20034;-63
2021/06/14 03:52:49;;;;;;;5.32;2.35;;;;;;;13.95;92.69;96782.72;4964438;28;20057;-62
2021/06/14 03:55:15;;;;;;;4.82;2.55;;;;;;;13.43;95.95;96787.06;4965672;28;20589;-61
2021/06/14 03:57:41;;;;;;;6.07;2.38;;;;;;;13.88;94.35;96787.50;4968395;28;20066;-62
2021/06/14 04:00:12;;;;;;;4.18;2.72;;;;;;;14.14;95.02;96779.50;4967646;28;20525;-61
2021/06/14 04:02:38;;;;;;;5.32;2.30;;;;;;;14.30;93.58;96751.25;4968225;28;20043;-61
2021/06/14 04:05:05;;;;;;;4.63;2.22;;;;;;;14.70;89.90;96773.06;4967775;28;20042;-62
2021/06/14 04:07:31;;;;;;;3.45;2.38;;;;;;;14.43;87.03;96730.13;4967888;28;20073;-61
2021/06/14 04:09:59;;;;;;;6.00;2.42;;;;;;;14.83;86.77;96782.53;4967813;28;20530;-62
2021/06/14 04:12:27;;;;;;;5.13;3.38;;;;;;;14.73;87.76;96767.44;4967346;28;20510;-61
2021/06/14 04:14:52;;;;;;;4.55;2.92;;;;;;;14.46;88.71;96735.66;4968053;28;20035;-60
2021/06/14 04:17:18;;;;;;;7.55;3.55;;;;;;;14.51;89.24;96720.56;4967494;28;20034;-61
2021/06/14 04:19:43;;;;;;;8.23;4.30;;;;;;;14.44;88.12;96707.44;4967959;28;20038;-61
2021/06/14 04:22:09;;;;;;;9.90;3.50;;;;;;;14.34;88.66;96713.03;4967844;28;20038;-62
2021/06/14 04:24:34;;;;;;;4.43;3.15;;;;;;;14.18;88.72;96663.28;4982510;28;20525;-62
2021/06/14 04:27:00;;;;;;;7.18;3.35;;;;;;;15.15;87.72;96766.47;4982217;28;20082;-62
2021/06/14 04:29:26;;;;;;;4.75;2.63;;;;;;;14.69;85.06;96676.66;4965831;28;20462;-63
2021/06/14 04:31:52;;;;;;;3.95;2.30;;;;;;;15.40;83.24;96772.72;4966904;28;20482;-61
2021/06/14 04:34:17;;;;;;;5.28;2.63;;;;;;;15.33;83.08;96778.34;4967992;28;20053;-61
2021/06/14 04:36:43;;;;;;;3.58;2.83;;;;;;;15.67;83.44;96775.72;4966948;28;20110;-62
2021/06/14 04:39:09;;;;;;;5.90;3.42;;;;;;;15.88;83.60;96770.00;4967881;28;20114;-61
2021/06/14 04:41:35;;;;;;;7.65;2.55;;;;;;;15.70;82.63;96774.91;4965333;28;20050;-61
2021/06/14 04:44:01;;;;;;;6.10;3.47;;;;;;;15.81;83.68;96776.44;4965354;28;20570;-61
2021/06/14 04:46:26;;;;;;;6.70;2.97;;;;;;;15.96;81.89;96772.34;4981311;28;20043;-61
2021/06/14 04:48:52;;;;;;;5.88;3.45;;;;;;;16.23;79.36;96776.06;4966930;28;20517;-61
2021/06/14 04:51:18;;;;;;;3.20;2.83;;;;;;;16.31;78.32;96760.81;4966863;28;20039;-63
2021/06/14 04:53:43;;;;;;;6.82;3.38;;;;;;;16.56;78.45;96772.59;4965371;28;20114;-61
2021/06/14 04:56:09;;;;;;;4.13;3.33;;;;;;;15.91;76.42;96644.28;4965108;28;20490;-61
2021/06/14 04:58:34;;;;;;;6.28;3.15;;;;;;;16.83;75.44;96775.47;4967355;28;20035;-60
2021/06/14 05:01:01;;;;;;;8.23;3.78;;;;;;;16.66;77.13;96764.50;4966587;28;20049;-62
2021/06/14 05:03:27;;;;;;;8.50;4.32;;;;;;;16.82;77.45;96773.09;4966659;28;20039;-61
2021/06/14 05:05:52;;;;;;;8.32;5.50;;;;;;;16.63;76.30;96780.06;4964261;28;20513;-63
2021/06/14 05:08:19;;;;;;;14.02;4.05;;;;;;;16.94;76.80;96752.94;4967018;28;20074;-61
2021/06/14 05:10:48;;;;;;;6.47;3.47;;;;;;;16.89;76.31;96703.84;4966462;28;20041;-61
2021/06/14 05:13:14;;;;;;;4.45;3.05;;;;;;;17.38;74.30;96766.75;4966687;28;20039;-63
2021/06/14 05:15:39;;;;;;;4.55;3.00;;;;;;;17.34;74.24;96752.03;4966303;28;20637;-63
2021/06/14 05:18:06;;;;;;;6.75;3.33;;;;;;;17.48;72.87;96771.47;4981724;28;20090;-61
2021/06/14 05:20:31;;;;;;;4.57;2.90;;;;;;;17.73;73.47;96771.88;4964290;28;20035;-62
2021/06/14 05:22:57;;;;;;;2.90;2.70;;;;;;;17.78;72.83;96771.41;4967054;28;20034;-61
2021/06/14 05:25:23;;;;;;;7.00;3.08;;;;;;;17.13;74.77;96665.53;4980494;28;20073;-63
2021/06/14 05:27:49;;;;;;;5.45;2.72;;;;;;;18.00;71.71;96758.63;4966385;28;20125;-64
2021/06/14 05:30:15;;;;;;;4.88;2.65;;;;;;;18.13;70.60;96759.59;4965814;28;20498;-62
2021/06/14 05:32:40;;;;;;;3.67;2.00;;;;;;;17.59;71.07;96716.06;4966501;28;20225;-62
2021/06/14 05:35:07;;;;;;;2.40;1.85;;;;;;;18.24;68.89;96756.63;4966448;28;20027;-64
2021/06/14 05:37:33;;;;;;;5.03;2.35;;;;;;;18.83;68.94;96761.13;4966359;28;20498;-63
2021/06/14 05:39:58;;;;;;;3.65;2.03;;;;;;;19.13;65.71;96734.84;4980928;28;20097;-60
2021/06/14 05:42:24;;;;;;;2.58;2.03;;;;;;;19.44;65.20;96745.41;4964619;28;20393;-60
2021/06/14 05:44:49;;;;;;;2.53;1.85;;;;;;;19.53;62.51;96742.03;4966374;28;20047;-63
2021/06/14 05:47:15;;;;;;;2.45;1.80;;;;;;;19.51;58.16;96750.88;4966330;28;20051;-60
2021/06/14 05:49:40;;;;;;;4.45;2.10;;;;;;;19.46;58.20;96759.81;4964431;28;20050;-61
2021/06/14 05:52:06;;;;;;;3.72;2.35;;;;;;;19.13;51.46;96679.50;4966304;28;20089;-60
2021/06/14 05:54:31;;;;;;;4.20;2.50;;;;;;;19.07;52.05;96688.84;4961209;28;20464;-62
2021/06/14 05:56:57;;;;;;;6.53;2.38;;;;;;;19.14;54.97;96689.47;4963209;28;20039;-71
2021/06/14 05:59:22;;;;;;;4.68;2.67;;;;;;;19.16;56.89;96700.28;4946180;28;20043;-68
2021/06/14 06:01:48;;;;;;;6.20;3.13;;;;;;;19.51;58.08;96739.66;4961598;28;20042;-66
2021/06/14 06:04:14;;;;;;;4.45;2.60;;;;;;;19.35;59.05;96741.63;4965812;28;20026;-65
2021/06/14 06:06:40;;;;;;;5.43;3.35;;;;;;;19.09;57.25;96740.56;4965745;28;20164;-64
2021/06/14 06:09:05;;;;;;;4.28;2.40;;;;;;;18.84;57.11;96688.97;4965445;28;20026;-64
2021/06/14 06:11:32;;;;;;;2.78;2.50;;;;;;;19.21;56.70;96737.09;4964946;28;20039;-65
2021/06/14 06:13:57;;;;;;;4.70;2.58;;;;;;;19.24;55.12;96736.22;4965001;28;20477;-60
2021/06/14 06:16:23;;;;;;;6.28;2.53;;;;;;;19.22;54.77;96737.88;4964094;28;20038;-70
2021/06/14 06:18:48;;;;;;;2.83;2.25;;;;;;;19.17;54.24;96746.81;4964021;28;20429;-68
2021/06/14 06:21:14;;;;;;;2.58;2.05;;;;;;;19.14;50.30;96685.91;4964859;28;20070;-66
2021/06/14 06:23:39;;;;;;;2.78;1.73;;;;;;;17.37;49.71;96395.59;4965163;28;20046;-69
2021/06/14 06:26:05;;;;;;;2.20;1.90;;;;;;;19.54;49.01;96744.41;4965000;28;20034;-70
2021/06/14 06:28:31;;;;;;;2.20;1.83;;;;;;;19.40;50.83;96744.72;4965394;28;20474;-60
2021/06/14 06:30:57;;;;;;;4.40;2.42;;;;;;;19.11;51.29;96704.41;4964956;28;20034;-61
2021/06/14 06:33:22;;;;;;;3.75;1.85;;;;;;;18.50;52.47;96689.25;4965071;28;20669;-65
2021/06/14 06:35:48;;;;;;;3.72;2.22;;;;;;;19.03;49.65;96747.88;4965113;28;20031;-64
2021/06/14 06:38:13;;;;;;;6.32;2.38;;;;;;;18.89;47.41;96661.16;4965639;28;20043;-59
2021/06/14 06:43:23;;;;;;;2.15;1.77;;;;;;;19.43;49.86;96720.56;4964800;28;20089;-64
2021/06/14 06:45:48;;;;;;;3.00;2.13;;;;;;;19.29;49.49;96664.72;4962670;28;20035;-62
2021/06/14 06:48:14;;;;;;;2.30;2.10;;;;;;;19.51;49.23;96700.31;4979827;28;20118;-61
2021/06/14 06:50:39;;;;;;;4.53;2.35;;;;;;;19.47;51.38;96693.97;4963885;28;20031;-69
2021/06/14 06:53:04;;;;;;;3.20;1.85;;;;;;;20.25;48.62;96720.22;4965266;28;20038;-63
2021/06/14 06:55:30;;;;;;;3.90;2.22;;;;;;;20.57;47.70;96725.75;4964469;28;20520;-59
2021/06/14 06:57:56;;;;;;;2.00;1.80;;;;;;;20.44;42.97;96654.56;4979677;28;20026;-65
2021/06/14 07:00:23;;;;;;;4.25;1.60;;;;;;;20.40;41.41;96620.91;4964465;28;20049;-64
2021/06/14 07:02:49;;;;;;;4.55;2.00;;;;;;;20.81;40.73;96645.44;4963390;28;20078;-61
2021/06/14 07:05:15;;;;;;;2.83;2.08;;;;;;;21.33;40.68;96671.25;4964759;28;20049;-64
2021/06/14 07:07:42;;;;;;;2.38;2.17;;;;;;;21.30;41.87;96660.09;4963502;28;20556;-65
2021/06/14 07:10:07;;;;;;;5.43;1.80;;;;;;;21.13;41.77;96673.50;4964281;28;20173;-57
2021/06/14 07:12:34;;;;;;;4.47;2.35;;;;;;;21.71;40.67;96691.78;4964868;28;20113;-62
2021/06/14 07:15:00;;;;;;;4.45;2.28;;;;;;;22.00;39.45;96698.09;4964608;28;20034;-62
2021/06/14 07:17:26;;;;;;;2.58;2.38;;;;;;;22.07;39.71;96697.84;4964588;28;20039;-60
2021/06/14 07:19:53;;;;;;;3.90;1.95;;;;;;;22.26;39.82;96716.56;4962282;28;20109;-65
2021/06/14 07:22:18;;;;;;;5.53;2.20;;;;;;;22.09;39.89;96712.31;4963889;28;20042;-59
2021/06/14 07:24:44;;;;;;;7.45;2.05;;;;;;;21.60;40.32;96668.78;4964540;28;20647;-62
2021/06/14 07:27:09;;;;;;;3.50;2.53;;;;;;;21.63;39.78;96710.16;4962708;28;20513;-65
2021/06/14 07:29:34;;;;;;;3.38;2.20;;;;;;;20.37;42.67;96559.09;4967364;28;20038;-62
2021/06/14 07:32:00;;;;;;;3.00;2.30;;;;;;;21.01;45.42;96716.50;4968640;28;20039;-68
2021/06/14 07:34:26;;;;;;;2.40;2.15;;;;;;;20.34;46.05;96672.53;4968399;28;20037;-70
2021/06/14 07:36:52;;;;;;;2.95;2.08;;;;;;;17.88;46.62;96327.69;4968108;28;20039;-67
2021/06/14 07:39:18;;;;;;;5.70;2.63;;;;;;;20.57;47.20;96720.94;4968320;28;20035;-69
2021/06/14 07:41:43;;;;;;;2.75;2.55;;;;;;;20.58;41.44;96659.81;4968434;28;20420;-63
2021/06/14 07:44:09;;;;;;;4.03;2.33;;;;;;;20.74;39.94;96668.16;4968371;28;20030;-67
2021/06/14 07:46:34;;;;;;;3.47;2.33;;;;;;;21.38;40.88;96701.69;4968545;28;20031;-63
2021/06/14 07:49:00;;;;;;;3.65;2.13;;;;;;;21.67;39.00;96708.00;4968462;28;20874;-58
2021/06/14 07:51:26;;;;;;;2.88;1.92;;;;;;;21.66;39.62;96708.47;4968159;28;20035;-68
2021/06/14 07:53:51;;;;;;;4.00;2.30;;;;;;;21.74;37.10;96690.88;4968313;28;20050;-72
2021/06/14 07:56:20;;;;;;;4.93;2.28;;;;;;;21.22;38.04;96620.09;4966424;28;20075;-70
2021/06/14 07:58:47;;;;;;;4.60;2.20;;;;;;;21.44;37.00;96699.91;4968081;28;20526;-64
2021/06/14 08:01:14;;;;;;;5.43;3.05;;;;;;;21.69;36.60;96711.16;4967463;28;20166;-61
2021/06/14 08:03:40;;;;;;;5.80;3.50;;;;;;;22.03;36.32;96691.56;4968235;28;20126;-66
2021/06/14 08:06:06;;;;;;;4.32;2.40;;;;;;;22.20;37.28;96690.16;4968138;28;20061;-67
2021/06/14 08:08:33;;;;;;;4.47;2.53;;;;;;;22.16;35.52;96683.84;4983283;28;20086;-62
2021/06/14 08:11:00;;;;;;;2.45;2.13;;;;;;;22.51;36.03;96697.97;4967884;28;20042;-61
2021/06/14 08:13:25;;;;;;;3.63;2.45;;;;;;;21.27;35.88;96470.19;4968019;28;20412;-58
2021/06/14 08:18:44;;;;;;;2.60;2.20;;;;;;;22.44;35.51;96711.09;4967754;28;20038;-62
2021/06/14 08:26:27;;;;;;;5.53;2.78;;;;;;;21.87;32.81;96717.06;4967322;28;20576;-65
2021/06/14 08:28:54;;;;;;;7.22;2.67;;;;;;;22.02;33.04;96695.59;4968060;28;20034;-67
2021/06/14 08:31:19;;;;;;;5.15;2.88;;;;;;;21.82;34.38;96655.59;4967617;28;20465;-61
2021/06/14 08:33:45;;;;;;;3.40;2.00;;;;;;;22.33;32.21;96688.09;4967210;28;20043;-65
2021/06/14 08:36:12;;;;;;;3.88;2.40;;;;;;;22.51;32.31;96669.75;4967028;28;20097;-60
2021/06/14 08:38:38;;;;;;;6.13;2.63;;;;;;;22.32;34.33;96674.41;4967133;28;20494;-70
2021/06/14 08:41:03;;;;;;;3.13;2.63;;;;;;;22.45;32.83;96655.41;4966484;28;20038;-73
2021/06/14 08:43:29;;;;;;;5.43;1.98;;;;;;;22.34;34.25;96695.31;4967317;28;20030;-72
2021/06/14 08:45:57;;;;;;;3.13;2.17;;;;;;;22.62;33.97;96706.88;4966371;28;20038;-71
2021/06/14 08:48:23;;;;;;;3.63;2.30;;;;;;;22.84;33.23;96699.22;4967097;28;20033;-72
2021/06/14 08:50:48;;;;;;;3.60;2.33;;;;;;;22.69;32.90;96703.78;4966723;28;20069;-72
2021/06/14 08:53:14;;;;;;;2.42;2.05;;;;;;;22.74;34.03;96706.03;4966960;28;20088;-72
2021/06/14 08:55:40;;;;;;;7.18;2.90;;;;;;;22.51;33.99;96710.03;4966503;28;20055;-60
2021/06/14 08:58:05;;;;;;;9.25;5.18;;;;;;;22.73;34.99;96665.69;4965533;28;20437;-60
2021/06/14 09:00:39;;;;;;;6.95;4.72;;;;;;;23.25;34.41;96713.00;4964962;28;20448;-72
2021/06/14 09:03:05;;;;;;;17.13;14.70;;;;;;;22.08;34.79;96648.66;4967356;28;20043;-72
2021/06/14 09:05:31;;;;;;;4.38;3.55;;;;;;;22.18;35.05;96630.56;4964606;28;20050;-60
2021/06/14 09:07:57;;;;;;;13.55;7.32;;;;;;;22.23;36.21;96686.44;4965156;28;20163;-71
2021/06/14 09:10:28;;;;;;;4.55;3.65;;;;;;;22.65;35.97;96701.13;4967122;28;20071;-70
2021/06/14 09:12:55;;;;;;;2.65;2.10;;;;;;;22.95;33.10;96629.75;4967346;28;20039;-60
2021/06/14 09:15:26;;;;;;;4.88;2.40;;;;;;;23.38;32.71;96703.22;4966606;28;20045;-71
2021/06/14 09:17:54;;;;;;;2.72;2.20;;;;;;;23.31;33.70;96665.97;4965428;28;20035;-72
2021/06/14 09:20:24;;;;;;;6.53;4.00;;;;;;;23.20;32.62;96699.47;4963697;28;20034;-63
2021/06/14 09:22:49;;;;;;;2.83;2.00;;;;;;;22.88;33.18;96661.13;4965759;28;20045;-62
2021/06/14 09:25:16;;;;;;;2.50;2.30;;;;;;;22.40;34.78;96707.59;4964345;28;20026;-70
2021/06/14 09:27:45;;;;;;;2.75;2.38;;;;;;;22.39;34.67;96697.56;4963868;28;20122;-64
2021/06/14 09:30:11;;;;;;;3.67;2.30;;;;;;;20.31;36.24;96363.97;4964197;28;20042;-59
2021/06/14 09:33:00;;;;;;;5.25;2.30;;;;;;;21.43;37.58;96608.13;4965761;28;20050;-61
2021/06/14 09:35:32;;;;;;;6.00;2.75;;;;;;;21.46;36.86;96711.50;4960523;28;20030;-63
2021/06/14 09:38:02;;;;;;;4.88;2.17;;;;;;;21.63;37.33;96693.25;4964278;28;20039;-71
2021/06/14 09:40:35;;;;;;;3.22;2.05;;;;;;;21.09;37.76;96577.03;4994087;28;20059;-69
2021/06/14 09:43:02;;;;;;;4.45;2.33;;;;;;;21.84;37.14;96661.56;4963617;28;20118;-72
2021/06/14 09:45:28;;;;;;;4.47;2.13;;;;;;;21.65;36.38;96631.56;4961883;28;20054;-59
2021/06/14 09:47:55;;;;;;;4.55;2.00;;;;;;;21.12;36.38;96603.53;4964870;28;20081;-70
2021/06/14 09:50:26;;;;;;;6.38;2.22;;;;;;;21.84;37.66;96706.69;4964213;28;20039;-67
2021/06/14 09:53:13;;;;;;;3.40;2.22;;;;;;;22.19;36.74;96705.50;4965247;28;20034;-66
2021/06/14 09:55:41;;;;;;;2.28;2.08;;;;;;;22.57;37.18;96708.25;4965480;28;20582;-69
2021/06/14 09:58:15;;;;;;;2.70;2.33;;;;;;;22.54;36.95;96691.44;4979846;28;20030;-58
2021/06/14 10:00:56;;;;;;;3.97;2.35;;;;;;;22.49;35.94;96707.69;4965700;28;20042;-60
2021/06/14 10:03:25;;;;;;;4.07;2.20;;;;;;;22.04;36.91;96709.25;4978532;28;20053;-64
2021/06/14 10:05:52;;;;;;;4.97;2.05;;;;;;;21.76;38.36;96651.78;4962877;28;20113;-66
2021/06/14 10:08:28;;;;;;;2.08;1.88;;;;;;;21.41;37.76;96706.44;4963613;28;20035;-61
2021/06/14 10:11:07;;;;;;;2.92;2.30;;;;;;;21.20;40.25;96709.13;4964852;28;20038;-58
2021/06/14 10:13:34;;;;;;;7.95;2.88;;;;;;;21.56;39.15;96685.00;4964709;28;20082;-70
2021/06/14 10:16:24;;;;;;;6.72;4.10;;;;;;;21.41;39.66;96638.78;4964518;28;20122;-56
2021/06/14 10:18:55;;;;;;;11.05;4.38;;;;;;;22.19;38.77;96677.28;4966394;28;20371;-67
2021/06/14 10:21:35;;;;;;;4.45;2.28;;;;;;;22.51;38.83;96689.50;4963480;28;20501;-60
2021/06/14 10:24:07;;;;;;;5.28;2.80;;;;;;;22.26;37.54;96609.31;4965641;28;20514;-64
2021/06/14 10:26:35;;;;;;;4.88;3.00;;;;;;;21.26;38.27;96564.38;4964947;28;20043;-60
2021/06/14 10:29:01;;;;;;;5.47;3.22;;;;;;;22.31;39.55;96703.91;4963321;28;20027;-58
2021/06/14 10:31:27;;;;;;;8.00;2.80;;;;;;;22.83;37.78;96708.94;4964856;28;20050;-58
2021/06/14 10:33:55;;;;;;;3.60;2.22;;;;;;;22.21;38.16;96686.09;4965366;28;20060;-57
2021/06/14 10:36:25;;;;;;;4.30;2.15;;;;;;;22.38;36.97;96712.13;4979530;28;20042;-56
2021/06/14 10:38:52;;;;;;;6.25;3.03;;;;;;;22.32;36.86;96711.91;4964810;28;20430;-56
2021/06/14 10:41:19;;;;;;;6.68;2.60;;;;;;;22.29;37.64;96670.50;4964197;28;20039;-56
2021/06/14 10:43:45;;;;;;;5.40;2.50;;;;;;;22.00;36.47;96624.75;4964596;28;20133;-65
2021/06/14 10:46:13;;;;;;;3.00;2.70;;;;;;;22.70;36.50;96711.03;4963768;28;20114;-63
2021/06/14 10:48:40;;;;;;;4.63;2.35;;;;;;;22.64;36.11;96690.25;4965040;28;20682;-57
2021/06/14 10:51:20;;;;;;;5.32;3.00;;;;;;;22.79;35.71;96697.00;4964425;28;20080;-63
2021/06/14 10:53:59;;;;;;;2.20;1.77;;;;;;;23.11;34.18;96690.94;4962478;28;20576;-58
2021/06/14 10:56:25;;;;;;;2.45;1.98;;;;;;;23.03;34.83;96670.63;4962744;28;20058;-65
2021/06/14 10:59:03;;;;;;;2.83;2.20;;;;;;;23.19;34.57;96652.69;4963648;28;20113;-61
2021/06/14 11:01:31;;;;;;;2.35;2.15;;;;;;;23.24;35.20;96671.84;4964593;28;20047;-60
2021/06/14 11:03:56;;;;;;;2.15;1.80;;;;;;;22.51;34.40;96627.41;4963775;28;20069;-67
2021/06/14 11:06:27;;;;;;;1.85;1.75;;;;;;;22.12;35.96;96643.69;4959444;28;20487;-64
2021/06/14 11:09:06;;;;;;;2.95;2.40;;;;;;;22.41;37.62;96689.41;4959923;28;20118;-65
2021/06/14 11:11:56;;;;;;;2.28;2.03;;;;;;;21.62;40.21;96671.94;4964541;28;20053;-65
2021/06/14 11:14:37;;;;;;;3.78;1.98;;;;;;;21.47;41.64;96699.00;4952056;28;20033;-66
2021/06/14 11:17:21;;;;;;;3.78;2.17;;;;;;;21.31;40.82;96701.91;4967622;28;20042;-61
2021/06/14 11:20:00;;;;;;;5.88;2.50;;;;;;;21.35;43.63;96716.69;4956606;28;20482;-65
2021/06/14 11:22:55;;;;;;;2.47;2.28;;;;;;;21.30;42.55;96694.69;4959402;28;20043;-60
2021/06/14 11:25:33;;;;;;;3.75;2.03;;;;;;;21.23;41.89;96692.09;4958179;28;20529;-62
2021/06/14 11:28:03;;;;;;;3.95;2.35;;;;;;;21.72;40.49;96687.72;4963483;28;20034;-59
2021/06/14 11:30:46;;;;;;;3.53;1.95;;;;;;;21.34;41.02;96663.59;4964512;28;20038;-60
2021/06/14 11:33:26;;;;;;;2.35;2.10;;;;;;;22.06;40.27;96668.09;4958938;28;20031;-62
2021/06/14 11:35:52;;;;;;;3.00;2.40;;;;;;;22.29;38.65;96676.13;4953468;28;20626;-63
2021/06/14 11:38:24;;;;;;;6.32;2.50;;;;;;;21.75;38.01;96556.31;4964017;28;20134;-61
2021/06/14 11:40:58;;;;;;;7.47;2.50;;;;;;;23.07;37.38;96662.03;4963105;28;20131;-67
2021/06/14 11:43:30;;;;;;;3.42;1.92;;;;;;;21.18;34.87;96326.44;4962939;28;20033;-67
2021/06/14 11:45:57;;;;;;;2.88;1.90;;;;;;;23.60;34.96;96582.34;4963244;28;20129;-65